Melbourne Beach, Florida
Current Conditions -  °F | °C
As of 8:53 PM on Saturday 25 Oct 2014 (Local Time) from KMLB Reporting Station
Clear Clear  
Wind Chill: 72°   Ceiling: Unl
Heat Index: 72°   Visibility: 10mi
Dew Point: 61°   Wind: 8mph
Humidity: 68%   Direction: 350°N
Pressure: 29.97"   Gusts: NA
Location:  28.07°N, 80.56°W
Report Text: KMLB 260053Z 35007KT 10SM CLR 22/16 A2997 RMK AO2 SLP146 T02220161
Loading
Personal Weather Stations






























Interactive Weather Map New forecast layout! Learn more

10-Day Weather Forecast

Advertisements
Track Severe Weather on mobile